Time;durP1;ratioP1;P1;durP2;ratioP2;P2;SDS_P1;SDS_P2;PMS_P1;PMS_P2;Temp;Humidity;BMP_temperature;BMP_pressure;BME280_temperature;BME280_humidity;BME280_pressure;Samples;Min_cycle;Max_cycle;Signal;HPM_P1;HPM_P2
2023/09/09 00:01:26;;;;;;;1.95;1.27;;;15.70;1.00;;;;;;5113373;28;20039;-74
2023/09/09 00:03:51;;;;;;;0.20;0.20;;;15.80;99.90;;;;;;5117090;28;20039;-74
2023/09/09 00:06:17;;;;;;;0.30;0.30;;;15.70;1.00;;;;;;5119550;28;20100;-74
2023/09/09 00:08:43;;;;;;;0.10;0.10;;;15.70;99.90;;;;;;5129660;27;20507;-74
2023/09/09 00:11:09;;;;;;;0.75;0.52;;;15.70;1.00;;;;;;5122265;28;20047;-74
2023/09/09 00:13:35;;;;;;;0.32;0.32;;;15.70;1.00;;;;;;5115171;28;20050;-74
2023/09/09 00:16:01;;;;;;;0.65;0.52;;;15.70;1.00;;;;;;5116907;27;20414;-74
2023/09/09 00:18:27;;;;;;;4.07;0.77;;;15.70;1.00;;;;;;5123113;27;20050;-74
2023/09/09 00:20:53;;;;;;;0.30;0.30;;;15.80;1.00;;;;;;5122790;28;20504;-75
2023/09/09 00:23:19;;;;;;;0.88;0.35;;;15.70;1.00;;;;;;5119282;27;20438;-74
2023/09/09 00:25:44;;;;;;;0.80;0.57;;;15.80;1.00;;;;;;5125846;27;20043;-74
2023/09/09 00:28:11;;;;;;;5.38;1.65;;;15.80;1.00;;;;;;5120115;27;20039;-74
2023/09/09 00:30:37;;;;;;;2.45;0.70;;;15.70;99.90;;;;;;5126768;27;20477;-74
2023/09/09 00:33:03;;;;;;;2.83;0.85;;;15.70;99.90;;;;;;5121907;27;20035;-74
2023/09/09 00:35:32;;;;;;;0.05;0.05;;;15.70;99.90;;;;;;5129383;27;20039;-74
2023/09/09 00:37:57;;;;;;;1.35;0.57;;;15.70;62.20;;;;;;5126213;27;20488;-74
2023/09/09 00:40:23;;;;;;;0.75;0.65;;;15.60;99.90;;;;;;5126104;27;20084;-74
2023/09/09 00:42:48;;;;;;;0.20;0.20;;;15.60;99.90;;;;;;5118491;27;20063;-74
2023/09/09 00:45:14;;;;;;;0.10;0.10;;;15.60;97.30;;;;;;5133955;27;20044;-74
2023/09/09 00:47:40;;;;;;;0.60;0.10;;;15.60;99.90;;;;;;5120287;27;20039;-74
2023/09/09 00:50:09;;;;;;;0.25;0.25;;;15.60;99.90;;;;;;5129271;27;20040;-74
2023/09/09 00:52:37;;;;;;;0.82;0.63;;;15.60;1.00;;;;;;5121589;27;20052;-74
2023/09/09 00:55:03;;;;;;;1.00;0.43;;;15.80;1.00;;;;;;5124706;27;20139;-74
2023/09/09 00:57:29;;;;;;;0.52;0.20;;;15.50;1.00;;;;;;5121773;27;20118;-74
2023/09/09 00:59:55;;;;;;;0.30;0.30;;;15.50;1.00;;;;;;5128954;27;20066;-74
2023/09/09 01:02:20;;;;;;;0.65;0.57;;;15.40;99.90;;;;;;5128554;27;20110;-74
2023/09/09 01:04:48;;;;;;;0.30;0.30;;;15.40;99.90;;;;;;5128756;27;20084;-74
2023/09/09 01:07:14;;;;;;;0.28;0.20;;;15.40;99.90;;;;;;5103518;27;20493;-74
2023/09/09 01:09:40;;;;;;;0.22;0.22;;;15.30;1.00;;;;;;5128830;27;20060;-76
2023/09/09 01:12:11;;;;;;;0.75;0.68;;;15.40;99.90;;;;;;5128517;27;20086;-74
2023/09/09 01:14:40;;;;;;;0.52;0.52;;;15.40;99.90;;;;;;5127983;27;20074;-74
2023/09/09 01:17:07;;;;;;;9.88;1.70;;;15.40;99.90;;;;;;5127464;27;20114;-74
2023/09/09 01:19:34;;;;;;;0.13;0.13;;;15.70;1.00;;;;;;5126317;27;20039;-74
2023/09/09 01:22:03;;;;;;;0.82;0.77;;;15.50;1.00;;;;;;5130612;27;20046;-74
2023/09/09 01:24:29;;;;;;;0.10;0.10;;;15.50;56.60;;;;;;5133292;27;20054;-74
2023/09/09 01:26:55;;;;;;;1.90;1.08;;;15.50;99.90;;;;;;5124395;27;20051;-74
2023/09/09 01:29:21;;;;;;;0.75;0.73;;;15.50;99.90;;;;;;5128319;27;20039;-74
2023/09/09 01:31:47;;;;;;;1.13;1.02;;;15.50;99.90;;;;;;5118998;27;20051;-74
2023/09/09 01:34:12;;;;;;;0.40;0.40;;;15.50;99.90;;;;;;5129438;27;20032;-74
2023/09/09 01:36:38;;;;;;;2.63;1.02;;;15.50;99.90;;;;;;5122782;27;20476;-74
2023/09/09 01:39:04;;;;;;;1.02;0.93;;;15.50;99.90;;;;;;5128296;27;20080;-74
2023/09/09 01:41:30;;;;;;;0.32;0.32;;;15.50;99.90;;;;;;5128137;27;20032;-73
2023/09/09 01:43:55;;;;;;;2.85;1.08;;;15.50;99.90;;;;;;5122376;27;20051;-74
2023/09/09 01:46:21;;;;;;;1.35;0.95;;;15.50;99.90;;;;;;5124003;27;20043;-74
2023/09/09 01:48:46;;;;;;;0.52;0.52;;;15.40;99.90;;;;;;5121148;27;20032;-76
2023/09/09 01:51:12;;;;;;;1.92;1.55;;;15.40;99.90;;;;;;5127389;27;20104;-74
2023/09/09 01:53:38;;;;;;;1.05;0.90;;;15.40;99.90;;;;;;5124515;27;20381;-74
2023/09/09 01:56:04;;;;;;;1.55;0.65;;;15.50;99.90;;;;;;5124781;27;20469;-74
2023/09/09 01:58:29;;;;;;;1.50;1.35;;;15.40;99.90;;;;;;5128659;27;20039;-74
2023/09/09 02:00:55;;;;;;;0.88;0.73;;;15.40;99.90;;;;;;5127566;27;20046;-74
2023/09/09 02:03:21;;;;;;;2.90;2.08;;;15.40;99.90;;;;;;5120792;27;20040;-74
2023/09/09 02:05:47;;;;;;;0.98;0.88;;;15.40;99.90;;;;;;5127503;27;20507;-74
2023/09/09 02:08:13;;;;;;;0.65;0.65;;;15.40;99.90;;;;;;5107787;27;20035;-74
2023/09/09 02:10:39;;;;;;;0.75;0.75;;;15.40;99.90;;;;;;5127368;27;20043;-74
2023/09/09 02:13:05;;;;;;;0.63;0.30;;;15.40;1.00;;;;;;5120273;27;20032;-74
2023/09/09 02:15:30;;;;;;;2.40;1.45;;;15.30;99.90;;;;;;5115344;27;20058;-74
2023/09/09 02:17:57;;;;;;;1.00;0.43;;;15.30;1.00;;;;;;5123288;27;20043;-74
2023/09/09 02:20:23;;;;;;;1.15;0.95;;;15.20;99.90;;;;;;5126639;27;20044;-74
2023/09/09 02:22:48;;;;;;;2.28;1.77;;;15.20;1.00;;;;;;5122946;27;20039;-74
2023/09/09 02:25:14;;;;;;;4.88;1.13;;;15.20;1.00;;;;;;5119318;27;20092;-74
2023/09/09 02:27:40;;;;;;;4.13;1.85;;;15.20;1.00;;;;;;5124161;27;20051;-74
2023/09/09 02:30:06;;;;;;;3.25;2.63;;;15.90;99.90;;;;;;5127440;27;20031;-74
2023/09/09 02:32:32;;;;;;;7.20;2.50;;;15.30;99.90;;;;;;5127151;27;20445;-74
2023/09/09 02:34:59;;;;;;;4.20;2.22;;;15.30;1.00;;;;;;5117365;27;20114;-76
2023/09/09 02:37:26;;;;;;;2.25;1.67;;;15.40;1.00;;;;;;5123479;27;20039;-74
2023/09/09 02:39:52;;;;;;;0.75;0.73;;;15.30;1.00;;;;;;5125095;27;20405;-74
2023/09/09 02:42:23;;;;;;;1.17;1.10;;;15.40;1.00;;;;;;5126942;27;20031;-77
2023/09/09 02:44:52;;;;;;;2.15;1.73;;;15.30;1.00;;;;;;5119811;27;20047;-74
2023/09/09 02:47:18;;;;;;;4.38;2.08;;;15.30;1.00;;;;;;5123969;27;20035;-74
2023/09/09 02:49:44;;;;;;;1.60;1.15;;;15.30;1.00;;;;;;5123555;27;20031;-74
2023/09/09 02:52:10;;;;;;;4.75;3.47;;;15.40;1.00;;;;;;5118688;27;20515;-74
2023/09/09 02:54:38;;;;;;;1.45;1.35;;;15.30;1.00;;;;;;5115430;27;20552;-74
2023/09/09 02:57:04;;;;;;;4.25;2.50;;;15.30;1.00;;;;;;5115242;27;20039;-74
2023/09/09 02:59:33;;;;;;;7.18;4.63;;;15.50;1.00;;;;;;5116142;27;20043;-74
2023/09/09 03:02:00;;;;;;;4.07;1.75;;;15.30;1.00;;;;;;5123359;27;20035;-74
2023/09/09 03:04:25;;;;;;;2.28;1.73;;;15.30;1.00;;;;;;5111035;27;20070;-74
2023/09/09 03:06:51;;;;;;;2.10;1.67;;;15.50;1.00;;;;;;5126227;27;20082;-73
2023/09/09 03:09:17;;;;;;;5.25;1.45;;;15.30;1.00;;;;;;5125308;27;20551;-74
2023/09/09 03:11:43;;;;;;;2.05;1.58;;;15.30;1.00;;;;;;5123178;27;20036;-74
2023/09/09 03:14:08;;;;;;;1.25;0.85;;;15.40;1.00;;;;;;5115964;27;20128;-74
2023/09/09 03:16:35;;;;;;;6.53;1.95;;;15.20;1.00;;;;;;5125388;27;20070;-73
2023/09/09 03:19:01;;;;;;;1.17;0.93;;;15.20;43.10;;;;;;5125146;27;20039;-74
2023/09/09 03:21:27;;;;;;;2.90;1.38;;;15.10;1.00;;;;;;5124805;27;20429;-74
2023/09/09 03:23:52;;;;;;;1.02;0.93;;;15.10;1.00;;;;;;5117905;27;20046;-73
2023/09/09 03:26:22;;;;;;;5.75;2.47;;;15.10;1.00;;;;;;5118877;27;20048;-73
2023/09/09 03:28:51;;;;;;;3.70;2.42;;;15.00;72.10;;;;;;5126135;27;20043;-73
2023/09/09 03:31:17;;;;;;;0.45;0.43;;;15.00;1.00;;;;;;5128578;27;20043;-72
2023/09/09 03:33:43;;;;;;;4.90;2.33;;;15.00;31.60;;;;;;5123201;28;20371;-73
2023/09/09 03:36:09;;;;;;;0.52;0.45;;;15.00;56.30;;;;;;5132868;27;20032;-73
2023/09/09 03:38:35;;;;;;;0.65;0.65;;;15.00;98.30;;;;;;5124797;28;20377;-73
2023/09/09 03:41:05;;;;;;;7.45;2.00;;;14.90;99.90;;;;;;5121958;28;20425;-73
2023/09/09 03:43:30;;;;;;;0.98;0.85;;;14.90;99.90;;;;;;5121139;28;20110;-73
2023/09/09 03:45:56;;;;;;;1.05;0.98;;;14.80;99.90;;;;;;5116244;28;20461;-73
2023/09/09 03:48:23;;;;;;;1.52;1.27;;;14.80;99.90;;;;;;5121672;28;20501;-73
2023/09/09 03:50:49;;;;;;;2.33;1.85;;;14.90;99.90;;;;;;5121800;28;20039;-73
2023/09/09 03:53:15;;;;;;;2.28;1.52;;;15.00;99.90;;;;;;5125153;27;20047;-73
2023/09/09 03:55:41;;;;;;;1.95;0.77;;;15.00;99.90;;;;;;5123474;27;20123;-73
2023/09/09 03:58:06;;;;;;;8.32;1.45;;;14.90;99.90;;;;;;5127162;27;20031;-74
2023/09/09 04:00:32;;;;;;;0.85;0.85;;;14.90;99.90;;;;;;5128979;27;20039;-73
2023/09/09 04:02:58;;;;;;;2.38;2.15;;;14.80;99.90;;;;;;5126745;27;20042;-73
2023/09/09 04:05:24;;;;;;;5.35;2.50;;;14.80;99.90;;;;;;5107140;27;20039;-73
2023/09/09 04:07:50;;;;;;;2.97;1.85;;;14.80;99.90;;;;;;5119801;27;20119;-73
2023/09/09 04:10:16;;;;;;;1.48;1.30;;;14.70;99.90;;;;;;5124542;27;20115;-73
2023/09/09 04:12:42;;;;;;;2.88;2.40;;;14.80;99.90;;;;;;5128494;27;20039;-73
2023/09/09 04:15:10;;;;;;;1.13;0.90;;;14.70;99.90;;;;;;5122939;27;20404;-73
2023/09/09 04:17:36;;;;;;;3.25;2.55;;;14.70;99.90;;;;;;5125461;27;20040;-73
2023/09/09 04:20:03;;;;;;;1.90;1.48;;;14.70;99.90;;;;;;5131473;27;20046;-73
2023/09/09 04:22:29;;;;;;;0.10;0.10;;;14.70;99.90;;;;;;5126928;27;20449;-73
2023/09/09 04:24:55;;;;;;;0.98;0.90;;;14.70;92.80;;;;;;5122467;27;20039;-73
2023/09/09 04:27:21;;;;;;;2.78;1.80;;;14.70;1.00;;;;;;5128429;27;20045;-73
2023/09/09 04:29:47;;;;;;;1.20;1.05;;;14.70;1.00;;;;;;5125306;27;20128;-73
2023/09/09 04:32:12;;;;;;;2.53;1.33;;;14.70;1.00;;;;;;5124839;27;20502;-73
2023/09/09 04:34:38;;;;;;;31.67;3.45;;;14.70;1.00;;;;;;5118052;27;20040;-73
2023/09/09 04:37:04;;;;;;;2.22;1.33;;;14.70;1.00;;;;;;5120181;27;20075;-73
2023/09/09 04:39:29;;;;;;;0.35;0.22;;;14.70;1.00;;;;;;5124134;27;20070;-73
2023/09/09 04:41:55;;;;;;;0.43;0.38;;;14.60;1.00;;;;;;5126755;27;20040;-73
2023/09/09 04:44:21;;;;;;;0.35;0.35;;;14.60;99.90;;;;;;5127454;27;20045;-73
2023/09/09 04:46:46;;;;;;;1.05;0.90;;;14.60;99.90;;;;;;5127544;27;20046;-73
2023/09/09 04:49:12;;;;;;;2.55;1.25;;;14.60;99.90;;;;;;5124617;27;20031;-73
2023/09/09 04:51:38;;;;;;;3.00;1.33;;;14.60;99.90;;;;;;5124429;27;20048;-73
2023/09/09 04:54:03;;;;;;;1.40;1.17;;;14.60;99.90;;;;;;5124993;27;20075;-73
2023/09/09 04:56:29;;;;;;;1.50;1.35;;;14.60;99.90;;;;;;5127764;27;20104;-73
2023/09/09 04:58:55;;;;;;;1.08;0.57;;;14.50;99.90;;;;;;5127763;27;20031;-73
2023/09/09 05:01:21;;;;;;;0.63;0.30;;;14.50;99.90;;;;;;5115814;27;20094;-73
2023/09/09 05:03:46;;;;;;;1.23;0.60;;;14.50;1.00;;;;;;5114817;27;20038;-73
2023/09/09 05:06:12;;;;;;;0.98;0.22;;;14.50;1.00;;;;;;5123203;27;20054;-73
2023/09/09 05:08:38;;;;;;;1.00;0.73;;;14.50;1.00;;;;;;5126823;27;20502;-73
2023/09/09 05:11:04;;;;;;;0.10;0.10;;;14.50;99.90;;;;;;5115248;27;20393;-73
2023/09/09 05:13:29;;;;;;;0.55;0.45;;;15.40;99.90;;;;;;5126032;27;20051;-73
2023/09/09 05:15:55;;;;;;;0.80;0.63;;;14.60;99.90;;;;;;5122344;27;20041;-73
2023/09/09 05:18:21;;;;;;;0.30;0.30;;;14.90;99.90;;;;;;5124657;27;20488;-73
2023/09/09 05:20:46;;;;;;;1.77;1.13;;;14.70;99.90;;;;;;5125223;27;20039;-73
2023/09/09 05:23:12;;;;;;;1.33;0.80;;;14.80;99.90;;;;;;5116942;27;20038;-73
2023/09/09 05:25:38;;;;;;;0.10;0.10;;;14.80;99.90;;;;;;5113167;27;20036;-73
2023/09/09 05:28:04;;;;;;;0.38;0.20;;;14.70;99.90;;;;;;5127054;27;20114;-73
2023/09/09 05:30:29;;;;;;;0.75;0.45;;;14.80;95.10;;;;;;5126417;27;20043;-73
2023/09/09 05:32:55;;;;;;;0.65;0.52;;;14.90;33.00;;;;;;5123525;27;20070;-73
2023/09/09 05:35:21;;;;;;;0.32;0.32;;;14.90;26.30;;;;;;5118453;27;20040;-73
2023/09/09 05:37:46;;;;;;;1.10;0.32;;;15.10;97.90;;;;;;5124795;27;20473;-73
2023/09/09 05:40:12;;;;;;;0.73;0.50;;;15.00;92.90;;;;;;5123626;27;20159;-73
2023/09/09 05:42:39;;;;;;;2.13;0.63;;;15.00;30.00;;;;;;5123415;27;20036;-73
2023/09/09 05:45:05;;;;;;;1.13;0.63;;;15.10;1.00;;;;;;5118119;27;20077;-73
2023/09/09 05:47:31;;;;;;;0.47;0.30;;;15.20;1.00;;;;;;5123295;27;20054;-73
2023/09/09 05:49:57;;;;;;;4.13;0.85;;;15.20;99.90;;;;;;5124707;27;20396;-73
2023/09/09 05:52:22;;;;;;;3.95;0.80;;;15.40;99.90;;;;;;5126362;27;20459;-73
2023/09/09 05:54:49;;;;;;;4.60;0.80;;;15.60;99.90;;;;;;5123581;27;20104;-73
2023/09/09 05:57:15;;;;;;;0.45;0.35;;;15.60;99.90;;;;;;5123215;27;20039;-73
2023/09/09 05:59:41;;;;;;;0.52;0.30;;;15.70;99.90;;;;;;5123413;27;20445;-73
2023/09/09 06:02:07;;;;;;;2.33;1.05;;;15.80;99.90;;;;;;5123390;27;20404;-73
2023/09/09 06:04:33;;;;;;;1.88;0.38;;;15.90;99.90;;;;;;5120010;27;20054;-73
2023/09/09 06:06:58;;;;;;;5.95;1.48;;;16.00;1.00;;;;;;5109916;27;20035;-73
2023/09/09 06:09:24;;;;;;;1.55;1.20;;;16.30;99.90;;;;;;5125851;27;20479;-73
2023/09/09 06:11:50;;;;;;;1.70;1.25;;;16.30;9.10;;;;;;5126157;27;20031;-74
2023/09/09 06:14:16;;;;;;;1.08;0.90;;;16.60;1.00;;;;;;5113536;27;20182;-74
2023/09/09 06:16:42;;;;;;;1.75;1.63;;;17.30;1.00;;;;;;5118334;27;20122;-74
2023/09/09 06:19:07;;;;;;;1.58;1.20;;;18.10;99.90;;;;;;5118121;27;20035;-74
2023/09/09 06:21:33;;;;;;;1.35;1.20;;;18.80;1.00;;;;;;5124816;27;20031;-74
2023/09/09 06:23:59;;;;;;;0.55;0.55;;;19.50;99.90;;;;;;5116745;27;20105;-74
2023/09/09 06:26:30;;;;;;;2.83;1.38;;;20.20;1.00;;;;;;5111998;27;20044;-74
2023/09/09 06:28:56;;;;;;;0.80;0.70;;;20.80;1.00;;;;;;5116069;27;20529;-74
2023/09/09 06:31:21;;;;;;;2.05;0.95;;;21.30;99.90;;;;;;5108420;27;20082;-74
2023/09/09 06:33:47;;;;;;;1.23;1.10;;;21.90;99.90;;;;;;5118655;27;20046;-74
2023/09/09 06:36:13;;;;;;;0.95;0.75;;;22.40;99.90;;;;;;5116158;27;20075;-74
2023/09/09 06:38:38;;;;;;;4.50;1.52;;;23.00;1.00;;;;;;5119828;27;20035;-74
2023/09/09 06:41:04;;;;;;;2.55;2.03;;;23.30;1.00;;;;;;5122727;27;20386;-73
2023/09/09 06:43:29;;;;;;;1.10;1.02;;;23.80;99.90;;;;;;5122300;27;20492;-74
2023/09/09 06:45:57;;;;;;;5.28;1.50;;;24.20;99.90;;;;;;5119913;27;20485;-74
2023/09/09 06:48:22;;;;;;;3.33;1.52;;;24.60;99.90;;;;;;5122600;27;20100;-74
2023/09/09 06:50:49;;;;;;;1.55;1.10;;;24.90;99.90;;;;;;5122163;27;20461;-74
2023/09/09 06:53:15;;;;;;;0.45;0.35;;;25.20;99.90;;;;;;5119119;27;20123;-74
2023/09/09 06:55:45;;;;;;;3.58;1.60;;;25.50;99.90;;;;;;5119147;27;20478;-74
2023/09/09 06:58:12;;;;;;;0.73;0.32;;;25.60;99.90;;;;;;5118396;27;20048;-74
2023/09/09 07:00:38;;;;;;;2.38;1.55;;;25.60;99.90;;;;;;5122151;27;20041;-74
2023/09/09 07:03:05;;;;;;;2.58;1.08;;;25.10;99.90;;;;;;5121524;27;20106;-74
2023/09/09 07:05:31;;;;;;;1.10;0.93;;;24.30;99.90;;;;;;5115510;27;20048;-74
2023/09/09 07:07:57;;;;;;;1.17;0.73;;;23.70;99.90;;;;;;5118869;27;20040;-74
2023/09/09 07:10:23;;;;;;;1.92;1.58;;;23.10;99.90;;;;;;5121548;27;20515;-74
2023/09/09 07:12:51;;;;;;;1.45;1.00;;;22.60;99.90;;;;;;5120570;27;20036;-74
2023/09/09 07:15:17;;;;;;;2.08;1.08;;;22.10;99.90;;;;;;5104428;27;20050;-74
2023/09/09 07:17:46;;;;;;;2.47;1.23;;;21.90;99.90;;;;;;5122249;27;20484;-74
2023/09/09 07:20:12;;;;;;;1.08;0.98;;;21.70;99.90;;;;;;5123290;27;20399;-74
2023/09/09 07:22:38;;;;;;;0.77;0.77;;;21.50;99.90;;;;;;5122011;27;20134;-73
2023/09/09 07:25:05;;;;;;;3.15;2.15;;;21.40;1.00;;;;;;5120418;27;20080;-73
2023/09/09 07:27:30;;;;;;;1.67;1.17;;;21.30;1.00;;;;;;5119330;27;20049;-74
2023/09/09 07:29:56;;;;;;;0.85;0.80;;;21.30;1.00;;;;;;5124054;27;20035;-73
2023/09/09 07:32:22;;;;;;;1.60;0.95;;;21.30;16.10;;;;;;5124083;28;20058;-73
2023/09/09 07:34:48;;;;;;;0.77;0.77;;;21.30;51.80;;;;;;5121560;28;20389;-73
2023/09/09 07:37:14;;;;;;;0.43;0.43;;;21.30;99.90;;;;;;5119903;28;20082;-73
2023/09/09 07:39:47;;;;;;;1.38;1.13;;;21.40;99.90;;;;;;5122305;28;20602;-73
2023/09/09 07:42:13;;;;;;;9.32;2.20;;;21.40;99.90;;;;;;5124613;27;20035;-73
2023/09/09 07:44:38;;;;;;;0.90;0.88;;;21.50;99.90;;;;;;5122821;28;20495;-73
2023/09/09 07:47:06;;;;;;;2.10;1.60;;;21.50;99.90;;;;;;5119615;28;20046;-73
2023/09/09 07:49:33;;;;;;;1.58;1.27;;;21.60;99.90;;;;;;5119507;27;20052;-73
2023/09/09 07:51:59;;;;;;;1.77;1.60;;;21.60;99.90;;;;;;5120848;28;20062;-73
2023/09/09 07:54:25;;;;;;;1.02;0.93;;;21.70;99.90;;;;;;5123199;27;20039;-73
2023/09/09 07:56:50;;;;;;;1.70;1.00;;;21.70;99.90;;;;;;5123150;28;20110;-73
2023/09/09 07:59:16;;;;;;;2.88;1.17;;;21.80;99.90;;;;;;5121214;28;20499;-73
2023/09/09 08:01:43;;;;;;;3.10;1.73;;;21.90;99.90;;;;;;5121469;28;20039;-74
2023/09/09 08:04:09;;;;;;;0.77;0.68;;;22.10;99.90;;;;;;5122609;28;20036;-73
2023/09/09 08:06:34;;;;;;;1.17;1.08;;;22.20;99.90;;;;;;5124466;28;20035;-73
2023/09/09 08:09:01;;;;;;;3.55;2.80;;;22.70;99.90;;;;;;5125041;28;20445;-74
2023/09/09 08:11:26;;;;;;;1.98;1.40;;;23.70;1.00;;;;;;5121469;27;20054;-74
2023/09/09 08:13:52;;;;;;;1.67;1.23;;;24.80;1.00;;;;;;5121432;28;20039;-74
2023/09/09 08:16:17;;;;;;;1.67;0.60;;;25.80;99.90;;;;;;5122317;28;20065;-74
2023/09/09 08:18:43;;;;;;;2.88;2.13;;;26.70;99.90;;;;;;5124929;28;20043;-74
2023/09/09 08:21:10;;;;;;;2.38;1.75;;;27.50;99.90;;;;;;5124434;28;20043;-74
2023/09/09 08:23:36;;;;;;;2.20;1.30;;;28.00;99.90;;;;;;5121967;27;20043;-74
2023/09/09 08:26:01;;;;;;;2.05;1.42;;;28.60;99.90;;;;;;5121074;28;20093;-74
2023/09/09 08:28:27;;;;;;;0.82;0.82;;;29.20;99.90;;;;;;5122330;28;20040;-74
2023/09/09 08:31:00;;;;;;;0.80;0.77;;;29.50;99.90;;;;;;5124494;28;20089;-74
2023/09/09 08:33:26;;;;;;;2.22;1.08;;;29.90;99.90;;;;;;5124456;27;20035;-74
2023/09/09 08:36:00;;;;;;;1.02;0.80;;;30.20;99.90;;;;;;5121222;27;20084;-74
2023/09/09 08:38:26;;;;;;;2.40;1.33;;;30.80;99.90;;;;;;5121201;28;20439;-74
2023/09/09 08:41:25;;;;;;;2.53;2.33;;;31.30;99.90;;;;;;5122224;27;20048;-74
2023/09/09 08:44:11;;;;;;;0.95;0.88;;;31.40;99.90;;;;;;5121218;27;20060;-74
2023/09/09 08:46:38;;;;;;;0.75;0.60;;;31.80;99.90;;;;;;5124611;27;20050;-74
2023/09/09 08:49:04;;;;;;;1.42;1.05;;;32.20;99.90;;;;;;5124686;27;20043;-74
2023/09/09 08:51:44;;;;;;;4.70;2.28;;;32.70;99.90;;;;;;5124842;27;20051;-74
2023/09/09 08:54:11;;;;;;;1.33;0.98;;;32.80;99.90;;;;;;5127793;27;20031;-74
2023/09/09 08:56:36;;;;;;;2.05;1.08;;;32.70;99.90;;;;;;5127687;27;20122;-74
2023/09/09 08:59:03;;;;;;;1.38;1.05;;;32.70;99.90;;;;;;5126540;27;20114;-74
2023/09/09 09:01:31;;;;;;;1.30;1.20;;;32.70;99.90;;;;;;5124427;27;20082;-74
2023/09/09 09:03:58;;;;;;;3.50;2.15;;;32.50;99.90;;;;;;5124495;27;20039;-74
2023/09/09 09:06:24;;;;;;;1.15;1.05;;;32.40;99.90;;;;;;5127735;27;20043;-74
2023/09/09 09:08:50;;;;;;;2.58;1.35;;;32.10;99.90;;;;;;5121233;27;20055;-74
2023/09/09 09:11:18;;;;;;;2.75;1.33;;;32.30;99.90;;;;;;5125569;27;20036;-74
2023/09/09 09:13:46;;;;;;;2.13;1.30;;;32.60;99.90;;;;;;5127270;27;20042;-74
2023/09/09 09:16:12;;;;;;;3.20;1.38;;;32.70;99.90;;;;;;5127655;27;20108;-74
2023/09/09 09:18:38;;;;;;;4.10;2.35;;;32.70;99.90;;;;;;5116146;27;20038;-74
2023/09/09 09:21:10;;;;;;;2.03;1.83;;;32.80;99.90;;;;;;5124238;27;20111;-74
2023/09/09 09:23:46;;;;;;;3.85;2.03;;;32.60;99.90;;;;;;5126367;27;20071;-74
2023/09/09 09:26:29;;;;;;;4.50;1.10;;;32.80;99.90;;;;;;5127334;27;20043;-74
2023/09/09 09:28:55;;;;;;;1.42;1.33;;;33.00;99.90;;;;;;5116682;27;20042;-74
2023/09/09 09:31:22;;;;;;;9.90;2.92;;;32.80;87.20;;;;;;5123911;27;20044;-74
2023/09/09 09:33:49;;;;;;;1.65;1.52;;;32.80;92.50;;;;;;5126443;27;20039;-74
2023/09/09 09:36:17;;;;;;;1.27;1.00;;;32.80;84.10;;;;;;5127083;27;20084;-74
2023/09/09 09:38:43;;;;;;;2.20;1.63;;;32.70;81.90;;;;;;5125468;27;20067;-74
2023/09/09 09:41:09;;;;;;;1.33;1.02;;;32.70;68.60;;;;;;5123603;27;20098;-74
2023/09/09 09:43:36;;;;;;;0.82;0.73;;;32.70;84.50;;;;;;5123735;27;20039;-74
2023/09/09 09:46:21;;;;;;;1.15;1.05;;;32.50;64.10;;;;;;5126725;27;20078;-74
2023/09/09 09:48:48;;;;;;;0.90;0.68;;;32.20;54.90;;;;;;5126594;27;20041;-74
2023/09/09 09:51:14;;;;;;;2.38;1.58;;;32.00;43.80;;;;;;5119073;27;20054;-74
2023/09/09 09:53:48;;;;;;;2.90;1.67;;;31.80;45.30;;;;;;5126034;27;20047;-74
2023/09/09 09:56:19;;;;;;;2.28;1.80;;;31.80;36.10;;;;;;5123893;27;20043;-74
2023/09/09 09:58:48;;;;;;;2.60;2.33;;;31.40;29.80;;;;;;5123762;27;20028;-74
2023/09/09 10:01:14;;;;;;;1.23;1.05;;;31.20;9.30;;;;;;5125950;27;20519;-74
2023/09/09 10:04:00;;;;;;;1.30;0.85;;;31.10;29.10;;;;;;5126806;27;20035;-74
2023/09/09 10:06:28;;;;;;;11.10;1.33;;;30.90;25.80;;;;;;5115051;27;20039;-74
2023/09/09 10:09:08;;;;;;;1.38;1.17;;;30.80;20.80;;;;;;5123152;27;20085;-74
2023/09/09 10:11:42;;;;;;;1.15;0.60;;;30.60;9.90;;;;;;5115294;27;20039;-74
2023/09/09 10:14:16;;;;;;;1.73;1.52;;;30.50;8.30;;;;;;5123051;27;20043;-74
2023/09/09 10:16:43;;;;;;;2.17;1.80;;;30.40;1.00;;;;;;5116058;27;20042;-74
2023/09/09 10:19:11;;;;;;;2.20;1.15;;;30.50;1.00;;;;;;5123303;27;20035;-74
2023/09/09 10:21:38;;;;;;;2.08;1.15;;;30.50;2.20;;;;;;5126024;27;20038;-74
2023/09/09 10:24:05;;;;;;;2.20;0.95;;;30.50;1.00;;;;;;5126123;27;20035;-74
2023/09/09 10:26:32;;;;;;;2.08;1.45;;;30.50;1.00;;;;;;5124439;27;20075;-74
2023/09/09 10:29:01;;;;;;;2.05;1.52;;;30.60;1.50;;;;;;5122530;27;20044;-74
2023/09/09 10:31:29;;;;;;;1.38;1.25;;;30.80;5.50;;;;;;5122983;27;20050;-74
2023/09/09 10:33:56;;;;;;;3.08;1.83;;;30.90;14.10;;;;;;5126153;27;20087;-74
2023/09/09 10:36:24;;;;;;;1.58;1.13;;;30.70;1.00;;;;;;5126149;27;20050;-74
2023/09/09 10:38:52;;;;;;;2.85;1.15;;;30.80;8.20;;;;;;5123383;27;20088;-74
2023/09/09 10:41:17;;;;;;;1.90;1.42;;;31.00;9.00;;;;;;5122732;27;20061;-74
2023/09/09 10:43:43;;;;;;;2.22;1.15;;;31.00;14.90;;;;;;5123524;27;20485;-74
2023/09/09 10:46:09;;;;;;;1.67;0.63;;;31.20;17.80;;;;;;5125949;27;20042;-74
2023/09/09 10:48:35;;;;;;;3.92;1.27;;;31.40;20.80;;;;;;5125974;27;20103;-74
2023/09/09 10:51:05;;;;;;;1.35;0.63;;;31.50;21.30;;;;;;5123169;27;20039;-74
2023/09/09 10:53:32;;;;;;;9.98;2.22;;;31.60;18.10;;;;;;5122194;27;20477;-74
2023/09/09 10:56:16;;;;;;;1.67;0.75;;;31.40;1.00;;;;;;5122954;27;20096;-74
2023/09/09 10:58:44;;;;;;;1.35;0.90;;;31.60;22.30;;;;;;5125409;27;20480;-74
2023/09/09 11:01:23;;;;;;;0.77;0.50;;;31.50;7.70;;;;;;5123470;27;20031;-74
2023/09/09 11:03:49;;;;;;;1.38;0.93;;;31.60;1.00;;;;;;5122339;27;20120;-74
2023/09/09 11:06:25;;;;;;;2.30;1.42;;;31.80;13.90;;;;;;5124139;27;20074;-74
2023/09/09 11:08:59;;;;;;;0.90;0.75;;;31.90;17.00;;;;;;5125606;27;20120;-74
2023/09/09 11:11:37;;;;;;;1.05;0.70;;;32.00;13.60;;;;;;5122614;27;20047;-74
2023/09/09 11:14:07;;;;;;;4.00;1.45;;;31.90;5.50;;;;;;5122444;27;20110;-74
2023/09/09 11:16:38;;;;;;;4.63;1.33;;;31.60;1.00;;;;;;5125216;27;20065;-74
2023/09/09 11:19:11;;;;;;;1.15;0.60;;;32.00;7.00;;;;;;5125300;27;20043;-74
2023/09/09 11:21:53;;;;;;;0.90;0.68;;;32.20;1.00;;;;;;5122049;27;20128;-74
2023/09/09 11:24:19;;;;;;;2.35;1.67;;;32.20;6.40;;;;;;5122247;27;20382;-75
2023/09/09 11:26:47;;;;;;;1.30;1.00;;;32.20;1.00;;;;;;5125018;27;20109;-74
2023/09/09 11:29:15;;;;;;;1.00;0.90;;;32.00;1.00;;;;;;5124986;27;20499;-74
2023/09/09 11:31:40;;;;;;;1.08;0.68;;;32.40;14.70;;;;;;5125285;27;20055;-74
2023/09/09 11:34:06;;;;;;;1.52;0.90;;;32.80;12.00;;;;;;5125145;27;20039;-74
2023/09/09 11:36:32;;;;;;;0.82;0.73;;;33.20;29.10;;;;;;5124616;28;20031;-74
2023/09/09 11:39:03;;;;;;;0.45;0.35;;;33.50;23.10;;;;;;5122089;28;20035;-74
2023/09/09 11:41:32;;;;;;;0.77;0.60;;;33.60;36.90;;;;;;5121500;28;20063;-74
2023/09/09 11:44:05;;;;;;;1.10;0.70;;;33.70;19.80;;;;;;5124188;28;20118;-74
2023/09/09 11:46:38;;;;;;;1.90;0.87;;;33.60;4.30;;;;;;5125030;27;20043;-74
2023/09/09 11:49:04;;;;;;;3.05;1.55;;;34.20;19.00;;;;;;5122183;27;20046;-74
2023/09/09 11:51:30;;;;;;;2.13;1.40;;;34.60;17.10;;;;;;5121766;27;20052;-74
2023/09/09 11:53:57;;;;;;;2.80;1.50;;;35.20;28.00;;;;;;5122751;28;20036;-74
2023/09/09 11:56:22;;;;;;;1.02;0.73;;;35.10;1.00;;;;;;5124723;27;20473;-74
2023/09/09 11:58:49;;;;;;;19.58;1.55;;;35.10;1.00;;;;;;5124564;27;20084;-74
2023/09/09 12:01:14;;;;;;;0.65;0.63;;;35.30;1.00;;;;;;5121673;27;20524;-74
2023/09/09 12:03:40;;;;;;;9.18;1.20;;;35.30;1.00;;;;;;5121554;28;20078;-74
2023/09/09 12:06:08;;;;;;;0.70;0.50;;;35.20;1.00;;;;;;5122377;28;20051;-74
2023/09/09 12:08:34;;;;;;;4.03;2.33;;;34.90;1.00;;;;;;5124639;27;20045;-74
2023/09/09 12:11:03;;;;;;;4.47;1.33;;;34.00;1.00;;;;;;5124589;27;20496;-74
2023/09/09 12:13:29;;;;;;;1.67;1.33;;;33.60;1.00;;;;;;5121387;27;20028;-74
2023/09/09 12:15:57;;;;;;;3.25;1.30;;;33.00;1.00;;;;;;5121646;28;20032;-74
2023/09/09 12:18:22;;;;;;;0.55;0.45;;;33.20;1.00;;;;;;5126553;27;20496;-74
2023/09/09 12:21:03;;;;;;;0.88;0.82;;;33.90;1.00;;;;;;5128426;27;20039;-74
2023/09/09 12:23:34;;;;;;;0.55;0.50;;;34.00;1.00;;;;;;5126169;27;20130;-74
2023/09/09 12:26:12;;;;;;;0.80;0.68;;;34.00;1.00;;;;;;5125256;27;20115;-74
2023/09/09 12:28:39;;;;;;;2.15;1.33;;;34.30;1.00;;;;;;5127256;27;20134;-74
2023/09/09 12:31:05;;;;;;;2.15;1.55;;;34.20;1.00;;;;;;5128528;27;20035;-74
2023/09/09 12:33:42;;;;;;;0.90;0.70;;;33.70;1.00;;;;;;5127608;27;20556;-74
2023/09/09 12:36:20;;;;;;;0.93;0.85;;;34.20;1.00;;;;;;5125020;27;20083;-74
2023/09/09 12:38:48;;;;;;;0.75;0.52;;;34.50;1.00;;;;;;5126868;27;20043;-74
2023/09/09 12:41:21;;;;;;;2.60;1.42;;;34.90;1.00;;;;;;5129112;27;20035;-75
2023/09/09 12:43:50;;;;;;;0.32;0.32;;;35.30;1.00;;;;;;5127485;27;20047;-75
2023/09/09 12:46:18;;;;;;;0.73;0.73;;;35.40;1.00;;;;;;5125614;27;20078;-75
2023/09/09 12:48:54;;;;;;;0.50;0.50;;;35.40;1.00;;;;;;5126347;27;20082;-74
2023/09/09 12:51:21;;;;;;;0.75;0.50;;;36.00;1.00;;;;;;5129214;27;20051;-74